Time;durP1;ratioP1;P1;durP2;ratioP2;P2;SDS_P1;SDS_P2;PMS_P1;PMS_P2;Temp;Humidity;BMP_temperature;BMP_pressure;BME280_temperature;BME280_humidity;BME280_pressure;Samples;Min_cycle;Max_cycle;Signal;HPM_P1;HPM_P2
2021/08/15 00:01:03;;;;;;;13.87;3.47;;;;;;;16.60;80.50;100908.53;5053228;28;20160;-69
2021/08/15 00:03:28;;;;;;;9.10;2.87;;;;;;;16.53;79.84;100905.44;5035647;28;20570;-69
2021/08/15 00:05:54;;;;;;;9.03;2.83;;;;;;;16.52;80.00;100896.50;5052292;28;20171;-70
2021/08/15 00:08:19;;;;;;;7.60;3.40;;;;;;;16.55;79.49;100890.88;5052978;28;20196;-69
2021/08/15 00:10:44;;;;;;;8.50;3.20;;;;;;;16.58;79.82;100890.66;5052213;28;20251;-68
2021/08/15 00:13:10;;;;;;;18.20;3.07;;;;;;;16.53;79.82;100886.59;5035093;28;20552;-69
2021/08/15 00:15:35;;;;;;;10.27;3.27;;;;;;;16.55;79.35;100885.50;5051822;28;20175;-70
2021/08/15 00:18:00;;;;;;;10.03;3.03;;;;;;;16.57;78.76;100888.94;5051786;28;20212;-70
2021/08/15 00:20:25;;;;;;;10.77;3.17;;;;;;;16.53;79.21;100887.44;5035124;28;20171;-70
2021/08/15 00:22:51;;;;;;;10.43;3.40;;;;;;;16.52;79.36;100880.34;5034879;28;20207;-69
2021/08/15 00:25:17;;;;;;;6.70;2.60;;;;;;;16.54;78.92;100893.69;5051501;28;20210;-70
2021/08/15 00:27:43;;;;;;;9.03;2.70;;;;;;;16.49;79.12;100888.66;5051525;28;20215;-70
2021/08/15 00:30:10;;;;;;;9.13;2.90;;;;;;;16.42;79.61;100883.88;5051702;28;20229;-70
2021/08/15 00:32:37;;;;;;;9.70;2.70;;;;;;;16.41;79.87;100883.00;5052944;28;20221;-70
2021/08/15 00:35:04;;;;;;;10.27;3.07;;;;;;;16.38;79.80;100885.09;5052035;28;20644;-69
2021/08/15 00:37:30;;;;;;;7.37;3.00;;;;;;;16.36;79.16;100881.66;5051565;28;20286;-69
2021/08/15 00:39:55;;;;;;;8.53;3.20;;;;;;;16.28;79.52;100887.59;5052772;28;20207;-68
2021/08/15 00:42:20;;;;;;;12.23;2.87;;;;;;;16.31;78.92;100891.88;5034725;28;20201;-68
2021/08/15 00:44:46;;;;;;;9.50;3.10;;;;;;;16.28;79.06;100890.28;5051583;28;20175;-69
2021/08/15 00:47:11;;;;;;;13.20;2.87;;;;;;;16.25;78.76;100887.81;5034607;28;20223;-70
2021/08/15 00:49:37;;;;;;;7.00;2.83;;;;;;;16.22;79.19;100893.44;5051550;28;20172;-70
2021/08/15 00:52:02;;;;;;;5.40;2.30;;;;;;;16.17;79.45;100895.63;5051597;28;20195;-70
2021/08/15 00:54:27;;;;;;;9.47;2.80;;;;;;;16.15;79.40;100881.44;5052930;28;20180;-69
2021/08/15 00:56:54;;;;;;;8.47;2.87;;;;;;;16.11;79.38;100879.94;5053025;28;20211;-70
2021/08/15 00:59:23;;;;;;;7.27;2.23;;;;;;;16.15;78.88;100876.91;5051547;28;20209;-68
2021/08/15 01:01:52;;;;;;;7.47;2.50;;;;;;;16.03;79.68;100871.59;5051437;28;20168;-69
2021/08/15 01:04:18;;;;;;;8.17;2.77;;;;;;;16.07;79.31;100875.75;5035324;28;20176;-71
2021/08/15 01:06:44;;;;;;;9.30;3.13;;;;;;;16.12;78.68;100870.88;5051518;28;20192;-69
2021/08/15 01:09:09;;;;;;;11.10;3.67;;;;;;;16.04;79.34;100876.84;5051305;28;20193;-69
2021/08/15 01:11:36;;;;;;;7.70;3.27;;;;;;;16.08;78.86;100881.03;5034476;28;20195;-70
2021/08/15 01:14:02;;;;;;;12.07;3.87;;;;;;;16.07;79.15;100883.84;5051355;28;20544;-69
2021/08/15 01:16:28;;;;;;;12.03;4.07;;;;;;;16.04;79.70;100884.94;5051329;28;20283;-70
2021/08/15 01:18:53;;;;;;;9.40;3.43;;;;;;;16.02;79.62;100880.63;5052960;28;20262;-70
2021/08/15 01:21:19;;;;;;;11.57;3.37;;;;;;;16.02;79.46;100875.25;5057925;28;20183;-69
2021/08/15 01:23:45;;;;;;;10.27;3.37;;;;;;;15.94;79.63;100879.34;5038896;28;20175;-70
2021/08/15 01:26:18;;;;;;;8.70;2.87;;;;;;;15.95;79.63;100883.75;5057781;28;20179;-69
2021/08/15 01:28:44;;;;;;;11.10;3.70;;;;;;;15.78;80.54;100889.56;5054132;28;20544;-69
2021/08/15 01:31:11;;;;;;;8.50;3.03;;;;;;;15.89;80.08;100888.75;5051377;28;20200;-69
2021/08/15 01:33:39;;;;;;;11.20;3.30;;;;;;;15.85;79.83;100884.56;5052956;28;20261;-69
2021/08/15 01:36:05;;;;;;;9.93;3.40;;;;;;;15.89;79.71;100877.97;5051277;28;20178;-71
2021/08/15 01:38:34;;;;;;;11.60;3.27;;;;;;;15.86;79.86;100876.38;5035876;28;20257;-69
2021/08/15 01:40:59;;;;;;;8.93;2.87;;;;;;;15.83;79.88;100868.53;5038044;28;20544;-70
2021/08/15 01:43:25;;;;;;;11.23;2.87;;;;;;;15.80;80.22;100882.22;5055703;28;20180;-70
2021/08/15 01:45:51;;;;;;;11.07;2.90;;;;;;;15.81;80.30;100888.47;5054602;28;20667;-69
2021/08/15 01:48:17;;;;;;;10.63;3.00;;;;;;;15.80;80.76;100881.38;5054479;28;20191;-69
2021/08/15 01:50:43;;;;;;;13.60;3.37;;;;;;;15.76;81.09;100882.56;5054335;28;20265;-69
2021/08/15 01:53:13;;;;;;;11.13;3.30;;;;;;;15.72;81.48;100887.31;5037745;28;20188;-69
2021/08/15 01:55:39;;;;;;;8.23;3.47;;;;;;;15.71;81.61;100880.22;5054424;28;20544;-69
2021/08/15 01:58:06;;;;;;;10.87;2.87;;;;;;;15.67;82.01;100870.66;5037549;28;20218;-69
2021/08/15 02:00:32;;;;;;;9.77;2.93;;;;;;;15.67;82.12;100862.59;5054410;28;20168;-68
2021/08/15 02:02:57;;;;;;;8.13;3.10;;;;;;;15.60;82.53;100869.34;5054134;28;20628;-69
2021/08/15 02:05:22;;;;;;;8.37;2.90;;;;;;;15.61;82.62;100865.72;5037536;28;20183;-69
2021/08/15 02:07:54;;;;;;;12.30;3.27;;;;;;;15.67;82.60;100861.72;5037317;28;20234;-69
2021/08/15 02:10:19;;;;;;;11.93;3.30;;;;;;;15.66;82.73;100866.25;5055199;28;20279;-69
2021/08/15 02:12:45;;;;;;;12.47;3.40;;;;;;;15.60;83.07;100869.34;5037811;28;20671;-69
2021/08/15 02:15:10;;;;;;;12.13;3.53;;;;;;;15.54;83.10;100865.25;5037141;28;20183;-69
2021/08/15 02:17:35;;;;;;;10.47;2.63;;;;;;;15.48;83.34;100860.34;5037300;28;20560;-69
2021/08/15 02:20:01;;;;;;;11.87;2.87;;;;;;;15.44;83.49;100856.16;5053961;28;20179;-69
2021/08/15 02:22:26;;;;;;;8.83;3.03;;;;;;;15.37;84.27;100854.03;5055398;28;20517;-70
2021/08/15 02:24:51;;;;;;;10.47;2.97;;;;;;;15.41;85.16;100853.69;5053876;28;20186;-69
2021/08/15 02:27:17;;;;;;;9.07;3.30;;;;;;;15.35;85.10;100856.81;5053891;28;20199;-69
2021/08/15 02:29:42;;;;;;;12.27;2.70;;;;;;;15.44;85.68;100857.97;5055202;28;20171;-70
2021/08/15 02:32:07;;;;;;;9.80;2.43;;;;;;;15.44;85.12;100855.28;5053710;28;20675;-70
2021/08/15 02:34:33;;;;;;;7.17;3.00;;;;;;;15.37;86.14;100854.88;5037112;28;20175;-70
2021/08/15 02:36:58;;;;;;;10.70;3.10;;;;;;;15.33;86.31;100856.09;5036863;28;20202;-70
2021/08/15 02:39:23;;;;;;;12.67;2.97;;;;;;;15.34;86.90;100847.03;5054838;28;20171;-70
2021/08/15 02:41:48;;;;;;;11.17;3.30;;;;;;;15.36;87.28;100845.09;5053513;28;20269;-70
2021/08/15 02:44:14;;;;;;;16.00;3.33;;;;;;;15.28;87.75;100840.28;5053443;28;20180;-70
2021/08/15 02:46:39;;;;;;;8.77;3.47;;;;;;;15.28;88.25;100842.13;5054553;28;20207;-70
2021/08/15 02:49:05;;;;;;;8.73;3.40;;;;;;;15.27;88.44;100845.78;5052758;28;20179;-69
2021/08/15 02:51:30;;;;;;;14.47;3.93;;;;;;;15.29;89.38;100849.22;5052747;28;20222;-70
2021/08/15 02:53:56;;;;;;;13.20;3.47;;;;;;;15.14;89.72;100851.16;5054551;28;20168;-70
2021/08/15 02:56:21;;;;;;;7.60;3.30;;;;;;;15.11;90.34;100840.63;5036392;28;20179;-70
2021/08/15 02:58:46;;;;;;;9.27;3.17;;;;;;;15.05;90.71;100853.63;5053138;28;20578;-70
2021/08/15 03:01:12;;;;;;;15.53;3.67;;;;;;;15.04;91.18;100844.72;5053238;28;20532;-69
2021/08/15 03:03:37;;;;;;;11.57;4.20;;;;;;;15.07;91.83;100855.25;5052976;28;20175;-70
2021/08/15 03:06:02;;;;;;;14.93;3.90;;;;;;;15.09;92.38;100855.13;5036397;28;20207;-70
2021/08/15 03:08:27;;;;;;;9.33;3.67;;;;;;;15.07;93.02;100847.19;5053356;28;20337;-70
2021/08/15 03:10:53;;;;;;;13.70;4.00;;;;;;;15.01;93.73;100835.03;5052954;28;20677;-70
2021/08/15 03:13:18;;;;;;;14.47;4.07;;;;;;;15.01;93.90;100839.56;5036141;28;20647;-70
2021/08/15 03:15:43;;;;;;;9.73;3.43;;;;;;;14.98;94.13;100847.84;5052713;28;20172;-70
2021/08/15 03:18:09;;;;;;;18.43;3.70;;;;;;;14.95;94.20;100846.25;5052809;28;20210;-69
2021/08/15 03:20:34;;;;;;;11.57;4.33;;;;;;;15.02;94.23;100846.66;5053935;28;20220;-69
2021/08/15 03:22:59;;;;;;;18.03;4.67;;;;;;;15.06;94.08;100853.53;5052839;28;20697;-70
2021/08/15 03:25:25;;;;;;;9.63;3.80;;;;;;;15.06;94.12;100842.78;5054191;28;20183;-70
2021/08/15 03:27:50;;;;;;;14.10;4.27;;;;;;;15.04;94.36;100839.34;5052408;28;20223;-70
2021/08/15 03:30:15;;;;;;;10.03;3.63;;;;;;;15.08;94.49;100835.47;5052402;28;20179;-69
2021/08/15 03:32:41;;;;;;;13.07;4.13;;;;;;;15.06;94.58;100839.22;5053520;28;20214;-69
2021/08/15 03:35:06;;;;;;;15.77;3.80;;;;;;;15.05;94.90;100840.19;5053576;28;20568;-69
2021/08/15 03:37:32;;;;;;;9.50;3.83;;;;;;;15.08;94.70;100848.91;5053350;28;20195;-69
2021/08/15 03:39:57;;;;;;;13.90;4.33;;;;;;;14.93;95.23;100855.38;5052297;28;20179;-69
2021/08/15 03:42:22;;;;;;;10.83;3.77;;;;;;;15.07;94.98;100849.00;5053608;28;20163;-69
2021/08/15 03:44:48;;;;;;;13.67;4.53;;;;;;;15.09;94.60;100847.94;5052296;28;20179;-70
2021/08/15 03:47:13;;;;;;;12.90;3.70;;;;;;;15.12;94.44;100836.09;5035407;28;20199;-70
2021/08/15 03:49:38;;;;;;;18.33;4.37;;;;;;;15.12;94.62;100833.41;5053900;28;20179;-69
2021/08/15 03:52:04;;;;;;;11.80;4.00;;;;;;;15.12;94.29;100836.09;5052267;28;20602;-69
2021/08/15 03:54:29;;;;;;;15.27;3.87;;;;;;;15.14;94.05;100826.09;5051976;28;20258;-69
2021/08/15 03:56:54;;;;;;;13.13;4.33;;;;;;;15.18;93.94;100824.91;5054568;28;20203;-69
2021/08/15 03:59:21;;;;;;;14.03;4.47;;;;;;;15.21;93.55;100825.53;5052027;28;20226;-69
2021/08/15 04:01:47;;;;;;;10.67;3.67;;;;;;;15.21;93.20;100816.63;5051759;28;20206;-70
2021/08/15 04:04:12;;;;;;;12.33;3.43;;;;;;;15.32;92.37;100822.94;5051987;28;20572;-69
2021/08/15 04:06:38;;;;;;;13.80;3.50;;;;;;;15.31;92.31;100826.63;5053028;28;20199;-68
2021/08/15 04:09:03;;;;;;;13.07;4.07;;;;;;;15.40;92.12;100818.84;5051851;28;20221;-68
2021/08/15 04:11:29;;;;;;;11.83;3.27;;;;;;;15.38;91.77;100831.53;5051670;28;20717;-69
2021/08/15 04:13:54;;;;;;;12.23;3.37;;;;;;;15.40;91.81;100822.38;5052881;28;20183;-68
2021/08/15 04:16:20;;;;;;;20.37;4.27;;;;;;;15.44;91.70;100823.88;5051528;28;20187;-70
2021/08/15 04:18:45;;;;;;;12.87;4.00;;;;;;;15.51;91.51;100822.44;5034813;28;20175;-68
2021/08/15 04:21:10;;;;;;;19.27;4.30;;;;;;;15.57;91.42;100831.88;5035033;28;20171;-69
2021/08/15 04:23:36;;;;;;;16.80;4.47;;;;;;;15.57;91.34;100815.75;5052858;28;20179;-69
2021/08/15 04:26:01;;;;;;;8.90;3.00;;;;;;;15.62;91.21;100819.03;5051506;28;20172;-69
2021/08/15 04:28:26;;;;;;;13.70;3.73;;;;;;;15.64;90.67;100817.06;5053526;28;20203;-69
2021/08/15 04:30:52;;;;;;;14.43;3.40;;;;;;;15.64;91.04;100811.69;5051873;28;20660;-69
2021/08/15 04:33:20;;;;;;;15.73;4.47;;;;;;;15.69;90.66;100814.03;5052695;28;20178;-69
2021/08/15 04:35:45;;;;;;;14.83;3.93;;;;;;;15.78;89.98;100829.50;5051507;28;20176;-69
2021/08/15 04:38:11;;;;;;;11.17;3.13;;;;;;;15.78;89.73;100824.09;5034796;28;20209;-69
2021/08/15 04:40:36;;;;;;;15.77;3.57;;;;;;;15.86;89.11;100837.84;5053230;28;20179;-69
2021/08/15 04:43:01;;;;;;;12.43;3.90;;;;;;;15.85;89.08;100836.13;5052771;28;20582;-69
2021/08/15 04:45:27;;;;;;;10.47;3.57;;;;;;;15.82;89.34;100839.91;5053150;28;20540;-68
2021/08/15 04:47:52;;;;;;;11.57;3.87;;;;;;;15.83;89.63;100838.94;5051481;28;20209;-68
2021/08/15 04:50:17;;;;;;;13.53;3.80;;;;;;;15.78;89.99;100827.66;5034603;28;20180;-69
2021/08/15 04:52:42;;;;;;;17.93;3.90;;;;;;;15.77;90.40;100836.72;5051502;28;20179;-69
2021/08/15 04:55:08;;;;;;;15.53;4.00;;;;;;;15.75;90.63;100825.19;5051569;28;20225;-71
2021/08/15 04:57:33;;;;;;;15.70;4.17;;;;;;;15.76;90.25;100826.91;5051926;28;20211;-70
2021/08/15 04:59:59;;;;;;;10.73;3.43;;;;;;;15.85;90.36;100826.22;5051834;28;20172;-70
2021/08/15 05:02:24;;;;;;;12.67;4.57;;;;;;;15.86;90.27;100817.16;5051783;28;20183;-70
2021/08/15 05:04:49;;;;;;;13.33;4.23;;;;;;;15.90;90.40;100828.56;5053172;28;20192;-72
2021/08/15 05:07:14;;;;;;;12.40;3.63;;;;;;;15.91;90.25;100828.44;5055378;28;20663;-72
2021/08/15 05:09:40;;;;;;;14.63;4.20;;;;;;;15.92;90.57;100827.47;5054664;28;20210;-71
2021/08/15 05:12:05;;;;;;;19.20;4.87;;;;;;;15.90;90.75;100829.41;5034820;28;20204;-70
2021/08/15 05:14:31;;;;;;;11.47;3.57;;;;;;;15.91;90.95;100831.13;5055919;28;20183;-70
2021/08/15 05:16:56;;;;;;;14.10;4.60;;;;;;;15.93;91.23;100823.81;5055501;28;20191;-69
2021/08/15 05:19:21;;;;;;;16.80;4.47;;;;;;;15.94;91.05;100833.59;5056800;28;20187;-70
2021/08/15 05:21:46;;;;;;;16.13;4.03;;;;;;;16.02;90.79;100832.19;5056743;28;20513;-70
2021/08/15 05:24:12;;;;;;;14.20;4.10;;;;;;;16.06;90.96;100826.44;5055098;28;20179;-69
2021/08/15 05:26:37;;;;;;;16.07;4.63;;;;;;;16.05;90.97;100835.50;5038342;28;20245;-70
2021/08/15 05:29:02;;;;;;;14.80;4.00;;;;;;;16.10;91.06;100840.53;5054749;28;20209;-70
2021/08/15 05:31:28;;;;;;;14.73;4.47;;;;;;;16.11;91.17;100823.41;5038182;28;20227;-70
2021/08/15 05:33:53;;;;;;;17.37;4.80;;;;;;;16.11;91.08;100834.16;5055039;28;20184;-70
2021/08/15 05:36:18;;;;;;;16.03;4.30;;;;;;;16.11;91.43;100826.09;5054710;28;20180;-70
2021/08/15 05:38:44;;;;;;;14.53;4.97;;;;;;;16.21;91.02;100817.19;5054819;28;20187;-70
2021/08/15 05:41:09;;;;;;;13.20;4.47;;;;;;;16.29;90.72;100821.97;5056503;28;20230;-70
2021/08/15 05:43:34;;;;;;;19.93;5.03;;;;;;;16.31;90.53;100817.34;5054466;28;20671;-68
2021/08/15 05:45:59;;;;;;;14.97;5.20;;;;;;;16.34;90.94;100809.00;5037929;28;20190;-70
2021/08/15 05:48:25;;;;;;;13.23;4.13;;;;;;;16.31;90.79;100806.56;5037816;28;20203;-70
2021/08/15 05:50:50;;;;;;;16.20;4.50;;;;;;;16.35;90.59;100812.56;5054931;28;20557;-72
2021/08/15 05:53:15;;;;;;;13.47;4.40;;;;;;;16.27;90.86;100810.47;5055895;28;20702;-71
2021/08/15 05:55:41;;;;;;;16.30;4.77;;;;;;;16.24;90.52;100799.94;5054814;28;20184;-71
2021/08/15 05:58:06;;;;;;;16.13;4.13;;;;;;;16.31;90.82;100789.53;5054281;28;20218;-70
2021/08/15 06:00:31;;;;;;;14.90;4.63;;;;;;;16.45;89.54;100792.91;5037934;28;20179;-71
2021/08/15 06:02:56;;;;;;;14.33;4.50;;;;;;;16.53;89.05;100793.16;5038287;28;20180;-69
2021/08/15 06:05:22;;;;;;;17.97;4.63;;;;;;;16.71;88.26;100796.25;5038655;28;20200;-69
2021/08/15 06:07:47;;;;;;;11.73;4.17;;;;;;;16.82;88.01;100803.50;5055025;28;20195;-70
2021/08/15 06:10:12;;;;;;;10.00;3.83;;;;;;;16.94;86.61;100804.38;5055961;28;20643;-70
2021/08/15 06:12:38;;;;;;;16.93;4.53;;;;;;;16.99;86.80;100807.53;5038668;28;20183;-69
2021/08/15 06:15:06;;;;;;;13.40;4.97;;;;;;;16.99;86.46;100811.09;5039691;28;20297;-69
2021/08/15 06:17:31;;;;;;;15.13;4.50;;;;;;;16.93;86.88;100806.19;5061383;28;20211;-69
2021/08/15 06:19:58;;;;;;;9.80;3.47;;;;;;;16.88;87.05;100811.97;5048670;28;20175;-69
2021/08/15 06:22:23;;;;;;;13.50;4.10;;;;;;;16.79;88.00;100815.41;5062747;28;20628;-69
2021/08/15 06:24:48;;;;;;;9.97;3.77;;;;;;;16.74;88.24;100832.91;5065081;28;20175;-69
2021/08/15 06:27:14;;;;;;;13.80;4.10;;;;;;;16.71;87.63;100811.56;5044211;28;20199;-71
2021/08/15 06:29:39;;;;;;;10.70;3.53;;;;;;;16.71;88.13;100822.34;5054358;28;20179;-70
2021/08/15 06:32:05;;;;;;;15.27;4.10;;;;;;;16.66;87.28;100816.47;5053722;28;20545;-69
2021/08/15 06:34:30;;;;;;;18.83;4.73;;;;;;;16.68;87.00;100809.13;5037520;28;20283;-71
2021/08/15 06:36:55;;;;;;;13.90;4.30;;;;;;;16.70;86.94;100821.50;5053438;28;20202;-70
2021/08/15 06:39:20;;;;;;;10.43;3.53;;;;;;;16.75;86.92;100827.41;5054012;28;20183;-69
2021/08/15 06:41:46;;;;;;;13.77;4.13;;;;;;;16.74;86.76;100830.22;5053788;28;20259;-70
2021/08/15 06:44:11;;;;;;;10.17;4.00;;;;;;;16.72;86.96;100832.16;5036834;28;20176;-69
2021/08/15 06:46:36;;;;;;;15.80;4.07;;;;;;;16.68;87.43;100831.53;5054079;28;20183;-70
2021/08/15 06:49:02;;;;;;;13.37;4.23;;;;;;;16.70;87.80;100836.81;5054894;28;20560;-69
2021/08/15 06:51:27;;;;;;;12.07;4.10;;;;;;;16.71;87.61;100838.50;5036887;28;20208;-70
2021/08/15 06:53:52;;;;;;;13.90;4.27;;;;;;;16.65;88.25;100845.22;5053439;28;20215;-70
2021/08/15 06:56:18;;;;;;;10.47;3.83;;;;;;;16.65;88.12;100834.44;5054653;28;20230;-69
2021/08/15 06:58:43;;;;;;;10.83;3.93;;;;;;;16.70;87.75;100842.19;5036329;28;20285;-69
2021/08/15 07:01:08;;;;;;;10.73;3.23;;;;;;;16.67;87.89;100843.28;5054624;28;20168;-70
2021/08/15 07:03:34;;;;;;;11.07;3.10;;;;;;;16.67;87.34;100837.03;5053565;28;20184;-70
2021/08/15 07:05:59;;;;;;;10.70;3.77;;;;;;;16.68;87.18;100846.84;5053168;28;20673;-71
2021/08/15 07:08:24;;;;;;;12.60;3.57;;;;;;;16.69;87.47;100843.16;5054346;28;20206;-70
2021/08/15 07:10:50;;;;;;;14.00;4.03;;;;;;;16.72;86.75;100842.94;5054260;28;20402;-70
2021/08/15 07:13:19;;;;;;;11.40;3.57;;;;;;;16.72;86.23;100848.31;5053008;28;20710;-69
2021/08/15 07:15:45;;;;;;;8.20;3.20;;;;;;;16.73;85.96;100850.06;5052810;28;20229;-68
2021/08/15 07:18:11;;;;;;;8.37;3.20;;;;;;;16.70;85.55;100847.56;5052746;28;20746;-68
2021/08/15 07:20:36;;;;;;;6.53;3.00;;;;;;;16.75;85.12;100851.66;5052998;28;20168;-71
2021/08/15 07:23:02;;;;;;;6.80;2.83;;;;;;;16.77;84.89;100849.69;5053867;28;20172;-69
2021/08/15 07:25:30;;;;;;;9.13;3.17;;;;;;;16.84;84.92;100852.75;5052766;28;20168;-68
2021/08/15 07:27:57;;;;;;;10.83;3.40;;;;;;;16.89;84.51;100853.25;5052809;28;20680;-70
2021/08/15 07:30:22;;;;;;;9.27;3.40;;;;;;;16.85;84.81;100859.88;5052888;28;20214;-69
2021/08/15 07:32:57;;;;;;;9.40;3.30;;;;;;;16.90;84.20;100857.66;5036159;28;20179;-70
2021/08/15 07:35:24;;;;;;;10.47;3.20;;;;;;;16.94;84.42;100871.75;5052888;28;20258;-70
2021/08/15 07:37:49;;;;;;;10.97;3.33;;;;;;;16.93;84.61;100862.81;5053063;28;20192;-70
2021/08/15 07:40:15;;;;;;;11.00;3.53;;;;;;;17.02;84.25;100863.91;5054292;28;20175;-69
2021/08/15 07:42:40;;;;;;;8.23;3.33;;;;;;;17.06;84.08;100857.28;5035959;28;20210;-69
2021/08/15 07:45:06;;;;;;;15.33;3.63;;;;;;;17.09;84.22;100862.44;5035812;28;20179;-70
2021/08/15 07:47:31;;;;;;;8.53;3.33;;;;;;;17.15;83.89;100852.06;5052551;28;20281;-70
2021/08/15 07:49:57;;;;;;;11.03;3.30;;;;;;;17.09;83.46;100859.75;5052537;28;20174;-71
2021/08/15 07:52:22;;;;;;;10.63;3.27;;;;;;;17.04;83.69;100854.72;5052369;28;20210;-68
2021/08/15 07:54:47;;;;;;;8.90;2.97;;;;;;;17.05;83.81;100853.75;5054132;28;20172;-70
2021/08/15 07:57:13;;;;;;;7.80;3.00;;;;;;;17.03;84.04;100850.31;5052155;28;20211;-69
2021/08/15 07:59:38;;;;;;;10.57;2.93;;;;;;;17.07;83.47;100859.00;5053464;28;20179;-70
2021/08/15 08:02:04;;;;;;;7.77;2.63;;;;;;;16.93;84.07;100867.34;5053595;28;20164;-69
2021/08/15 08:04:29;;;;;;;6.33;3.00;;;;;;;16.97;84.78;100850.81;5036002;28;20172;-69
2021/08/15 08:06:57;;;;;;;7.80;3.10;;;;;;;16.80;85.57;100860.25;5052044;28;20191;-71
2021/08/15 08:09:22;;;;;;;8.67;2.73;;;;;;;16.92;85.10;100853.00;5035742;28;20258;-69
2021/08/15 08:11:49;;;;;;;6.50;2.43;;;;;;;16.76;85.38;100858.75;5052370;28;20705;-68
2021/08/15 08:14:14;;;;;;;10.43;3.00;;;;;;;16.42;87.66;100859.63;5035545;28;20205;-69
2021/08/15 08:16:39;;;;;;;9.87;2.90;;;;;;;16.34;89.23;100862.03;5035403;28;20187;-72
2021/08/15 08:19:05;;;;;;;6.43;2.83;;;;;;;16.63;87.92;100855.25;5035873;28;20179;-71
2021/08/15 08:21:30;;;;;;;5.70;2.90;;;;;;;16.59;87.78;100859.16;5053309;28;20532;-71
2021/08/15 08:23:55;;;;;;;7.17;2.53;;;;;;;17.18;83.22;100851.81;5054137;28;20171;-70
2021/08/15 08:26:20;;;;;;;6.43;2.03;;;;;;;17.26;81.10;100851.19;5053171;28;20226;-71
2021/08/15 08:28:46;;;;;;;4.00;1.73;;;;;;;17.37;80.16;100851.16;5052507;28;20255;-68
2021/08/15 08:31:11;;;;;;;5.27;1.70;;;;;;;17.72;79.39;100852.84;5051549;28;20762;-69
2021/08/15 08:33:36;;;;;;;4.23;1.70;;;;;;;17.86;78.26;100854.44;5035103;28;20180;-70
2021/08/15 08:36:02;;;;;;;3.10;1.60;;;;;;;17.23;78.77;100855.97;5051843;28;20171;-69
2021/08/15 08:38:27;;;;;;;4.87;1.93;;;;;;;17.55;77.78;100850.66;5051720;28;20606;-71
2021/08/15 08:40:53;;;;;;;3.67;2.23;;;;;;;17.42;78.65;100857.03;5051806;28;20513;-69
2021/08/15 08:43:20;;;;;;;5.70;2.60;;;;;;;17.39;79.28;100843.81;5051740;28;20535;-70
2021/08/15 08:45:46;;;;;;;3.67;1.47;;;;;;;17.14;80.66;100844.09;5051735;28;20168;-70
2021/08/15 08:48:12;;;;;;;3.07;1.70;;;;;;;17.22;80.42;100848.84;5052640;28;20217;-69
2021/08/15 08:50:38;;;;;;;3.40;1.87;;;;;;;16.90;82.92;100846.88;5055802;28;20696;-71
2021/08/15 08:53:04;;;;;;;4.70;2.03;;;;;;;16.80;82.92;100851.28;5039154;28;20171;-69
2021/08/15 08:55:29;;;;;;;5.30;2.03;;;;;;;16.67;83.36;100839.75;5059619;28;20205;-70
2021/08/15 08:57:54;;;;;;;4.90;2.17;;;;;;;17.03;82.45;100828.75;5039430;28;20218;-71
2021/08/15 09:00:20;;;;;;;3.90;1.87;;;;;;;17.30;81.28;100827.50;5057095;28;20183;-70
2021/08/15 09:02:45;;;;;;;5.20;2.07;;;;;;;18.12;77.63;100834.19;5056486;28;20199;-71
2021/08/15 09:05:11;;;;;;;5.40;2.13;;;;;;;18.33;76.98;100828.81;5038712;28;20612;-71
2021/08/15 09:07:41;;;;;;;5.87;1.80;;;;;;;17.92;77.43;100833.19;5038944;28;20245;-70
2021/08/15 09:10:09;;;;;;;6.00;1.73;;;;;;;17.95;77.83;100834.75;5055489;28;20183;-70
2021/08/15 09:12:38;;;;;;;4.23;1.90;;;;;;;18.08;78.00;100838.13;5055487;28;20196;-72
2021/08/15 09:15:18;;;;;;;3.60;1.67;;;;;;;18.01;78.01;100840.50;5056345;28;20167;-69
2021/08/15 09:17:44;;;;;;;5.57;1.87;;;;;;;18.37;75.72;100830.28;5057124;28;20241;-71
2021/08/15 09:20:12;;;;;;;5.40;2.20;;;;;;;17.91;78.36;100834.16;5039711;28;20548;-70
2021/08/15 09:22:37;;;;;;;6.93;1.80;;;;;;;17.59;79.72;100826.00;5056709;28;20179;-70
2021/08/15 09:25:06;;;;;;;4.30;1.80;;;;;;;17.68;79.10;100822.56;5056463;28;20584;-70
2021/08/15 09:27:36;;;;;;;7.60;2.47;;;;;;;17.59;79.59;100817.91;5038429;28;20199;-70
2021/08/15 09:30:18;;;;;;;5.07;2.03;;;;;;;18.05;77.82;100811.41;5038399;28;20171;-70
2021/08/15 09:33:10;;;;;;;3.57;1.77;;;;;;;18.60;75.29;100822.91;5056211;28;20175;-69
2021/08/15 09:35:35;;;;;;;5.27;1.73;;;;;;;18.47;74.77;100819.53;5038262;28;20183;-69
2021/08/15 09:38:12;;;;;;;4.10;2.00;;;;;;;18.42;76.69;100815.38;5054504;28;20564;-70
2021/08/15 09:40:45;;;;;;;2.70;1.37;;;;;;;18.79;74.15;100812.22;5055140;28;20163;-69
2021/08/15 09:43:17;;;;;;;2.47;1.50;;;;;;;18.67;74.40;100816.00;5056313;28;20174;-71
2021/08/15 09:45:44;;;;;;;4.17;1.60;;;;;;;18.47;75.96;100820.38;5056519;28;20163;-70
2021/08/15 09:48:16;;;;;;;4.40;2.90;;;;;;;18.74;75.91;100800.94;5054729;28;20789;-72
2021/08/15 09:50:41;;;;;;;3.53;1.77;;;;;;;18.85;74.24;100800.00;5054646;28;20200;-70
2021/08/15 09:53:06;;;;;;;3.70;1.93;;;;;;;19.15;73.26;100812.66;5055054;28;20183;-70
2021/08/15 09:55:44;;;;;;;2.70;1.60;;;;;;;19.17;73.74;100800.72;5055932;28;20180;-69
2021/08/15 09:58:17;;;;;;;3.80;1.70;;;;;;;19.11;73.68;100800.41;5058388;22;20222;-74
2021/08/15 10:00:42;;;;;;;5.93;2.00;;;;;;;19.70;71.51;100805.00;5039682;28;20167;-74
2021/08/15 10:03:08;;;;;;;7.47;2.10;;;;;;;19.28;72.39;100795.19;5055549;28;20180;-75
2021/08/15 10:05:33;;;;;;;3.47;1.77;;;;;;;19.45;71.97;100782.00;5054723;28;20184;-72
2021/08/15 10:08:01;;;;;;;5.37;1.90;;;;;;;20.05;69.54;100799.03;5054999;28;20210;-73
2021/08/15 10:10:26;;;;;;;4.43;1.70;;;;;;;20.25;70.12;100793.47;5055554;28;20180;-73
2021/08/15 10:12:51;;;;;;;4.63;2.07;;;;;;;19.76;71.00;100788.22;5055721;28;20515;-73
2021/08/15 10:15:17;;;;;;;3.87;2.07;;;;;;;19.76;71.20;100780.94;5057575;28;20180;-73
2021/08/15 10:17:44;;;;;;;4.03;2.00;;;;;;;20.42;69.55;100780.19;5060399;28;20241;-73
2021/08/15 10:20:13;;;;;;;5.20;2.30;;;;;;;20.70;68.30;100778.41;5059700;28;20168;-73
2021/08/15 10:22:39;;;;;;;3.97;1.90;;;;;;;20.96;67.41;100774.06;5037870;28;20179;-74
2021/08/15 10:25:07;;;;;;;4.70;2.27;;;;;;;20.92;66.76;100773.50;5054450;28;20168;-74
2021/08/15 10:27:41;;;;;;;4.30;2.10;;;;;;;20.49;68.08;100771.38;5037764;28;20191;-73
2021/08/15 10:30:12;;;;;;;4.37;1.93;;;;;;;20.68;68.49;100762.31;5055705;28;20171;-74
2021/08/15 10:32:38;;;;;;;5.10;2.20;;;;;;;21.17;67.21;100781.94;5054121;28;20214;-73
2021/08/15 10:35:03;;;;;;;4.67;2.43;;;;;;;21.17;66.38;100766.50;5037571;28;20175;-73
2021/08/15 10:37:35;;;;;;;3.40;2.13;;;;;;;21.32;66.19;100766.91;5055401;28;20693;-73
2021/08/15 10:40:05;;;;;;;6.83;2.97;;;;;;;21.57;65.85;100762.59;5037295;28;20182;-74
2021/08/15 10:42:39;;;;;;;6.27;2.80;;;;;;;22.26;63.39;100764.59;5055187;28;20168;-74
2021/08/15 10:45:22;;;;;;;6.90;2.83;;;;;;;22.59;61.90;100754.81;5055080;28;20644;-74
2021/08/15 10:48:12;;;;;;;5.37;2.70;;;;;;;23.52;60.67;100763.09;5053908;28;20306;-74
2021/08/15 10:50:45;;;;;;;7.37;2.83;;;;;;;24.05;58.74;100757.22;5054801;28;20214;-75
2021/08/15 10:53:25;;;;;;;7.20;2.90;;;;;;;23.21;60.58;100744.59;5053902;28;20168;-74
2021/08/15 10:55:51;;;;;;;5.93;2.80;;;;;;;24.04;57.24;100746.47;5054614;28;20167;-73
2021/08/15 10:58:38;;;;;;;6.10;3.03;;;;;;;24.38;57.25;100738.16;5036502;28;20206;-73
2021/08/15 11:01:05;;;;;;;5.03;2.53;;;;;;;23.97;58.64;100741.72;5054840;28;20179;-73
2021/08/15 11:03:32;;;;;;;7.07;2.80;;;;;;;24.05;57.79;100731.81;5036831;28;20270;-73
2021/08/15 11:05:58;;;;;;;8.53;3.10;;;;;;;25.25;55.44;100731.72;5037589;28;20581;-74
2021/08/15 11:08:33;;;;;;;7.23;3.20;;;;;;;22.70;61.04;100718.34;5053967;28;20203;-75
2021/08/15 11:11:09;;;;;;;8.07;3.47;;;;;;;23.94;57.37;100714.81;5054289;28;20198;-74
2021/08/15 11:13:35;;;;;;;8.77;3.27;;;;;;;26.13;52.70;100714.94;5053436;28;20174;-74
2021/08/15 11:16:38;;;;;;;9.13;3.23;;;;;;;27.81;49.36;100710.47;5053251;28;20168;-75
2021/08/15 11:19:07;;;;;;;5.60;2.80;;;;;;;28.49;46.90;100708.97;5054347;28;20203;-75